sensor_id;sensor_type;location;lat;lon;timestamp;P1;durP1;ratioP1;P2;durP2;ratioP2
2011;SDS011;1009;51.436;6.972;2023-04-06T00:02:26;11.97;;;9.90;;
2011;SDS011;1009;51.436;6.972;2023-04-06T00:04:54;10.83;;;9.53;;
2011;SDS011;1009;51.436;6.972;2023-04-06T00:07:21;13.93;;;10.43;;
2011;SDS011;1009;51.436;6.972;2023-04-06T00:09:48;13.13;;;10.27;;
2011;SDS011;1009;51.436;6.972;2023-04-06T00:12:14;12.57;;;9.90;;
2011;SDS011;1009;51.436;6.972;2023-04-06T00:14:41;15.00;;;10.80;;
2011;SDS011;1009;51.436;6.972;2023-04-06T00:17:08;12.90;;;9.90;;
2011;SDS011;1009;51.436;6.972;2023-04-06T00:19:34;12.20;;;10.30;;
2011;SDS011;1009;51.436;6.972;2023-04-06T00:22:03;11.90;;;9.67;;
2011;SDS011;1009;51.436;6.972;2023-04-06T00:24:30;12.27;;;9.90;;
2011;SDS011;1009;51.436;6.972;2023-04-06T00:26:56;11.77;;;10.07;;
2011;SDS011;1009;51.436;6.972;2023-04-06T00:29:23;10.80;;;9.50;;
2011;SDS011;1009;51.436;6.972;2023-04-06T00:31:50;10.30;;;9.30;;
2011;SDS011;1009;51.436;6.972;2023-04-06T00:34:16;12.10;;;10.77;;
2011;SDS011;1009;51.436;6.972;2023-04-06T00:36:43;13.10;;;10.83;;
2011;SDS011;1009;51.436;6.972;2023-04-06T00:39:11;12.93;;;10.77;;
2011;SDS011;1009;51.436;6.972;2023-04-06T00:44:05;12.90;;;10.30;;
2011;SDS011;1009;51.436;6.972;2023-04-06T00:46:32;12.00;;;10.70;;
2011;SDS011;1009;51.436;6.972;2023-04-06T00:48:59;14.20;;;10.03;;
2011;SDS011;1009;51.436;6.972;2023-04-06T00:51:25;12.63;;;11.30;;
2011;SDS011;1009;51.436;6.972;2023-04-06T00:53:53;13.63;;;11.33;;
2011;SDS011;1009;51.436;6.972;2023-04-06T00:56:21;12.10;;;10.80;;
2011;SDS011;1009;51.436;6.972;2023-04-06T00:58:48;13.43;;;10.80;;
2011;SDS011;1009;51.436;6.972;2023-04-06T01:01:15;12.70;;;10.37;;
2011;SDS011;1009;51.436;6.972;2023-04-06T01:03:42;12.23;;;10.80;;
2011;SDS011;1009;51.436;6.972;2023-04-06T01:06:09;12.50;;;10.23;;
2011;SDS011;1009;51.436;6.972;2023-04-06T01:08:36;10.87;;;9.77;;
2011;SDS011;1009;51.436;6.972;2023-04-06T01:11:03;12.93;;;11.03;;
2011;SDS011;1009;51.436;6.972;2023-04-06T01:13:31;12.70;;;10.57;;
2011;SDS011;1009;51.436;6.972;2023-04-06T01:15:58;12.67;;;10.43;;
2011;SDS011;1009;51.436;6.972;2023-04-06T01:18:25;12.10;;;10.90;;
2011;SDS011;1009;51.436;6.972;2023-04-06T01:20:52;13.33;;;10.17;;
2011;SDS011;1009;51.436;6.972;2023-04-06T01:23:20;12.03;;;10.80;;
2011;SDS011;1009;51.436;6.972;2023-04-06T01:25:47;14.80;;;11.00;;
2011;SDS011;1009;51.436;6.972;2023-04-06T01:28:14;16.40;;;12.50;;
2011;SDS011;1009;51.436;6.972;2023-04-06T01:30:40;15.70;;;12.93;;
2011;SDS011;1009;51.436;6.972;2023-04-06T01:33:07;17.63;;;13.83;;
2011;SDS011;1009;51.436;6.972;2023-04-06T01:35:34;15.77;;;12.60;;
2011;SDS011;1009;51.436;6.972;2023-04-06T01:38:01;14.70;;;12.77;;
2011;SDS011;1009;51.436;6.972;2023-04-06T01:40:29;14.57;;;13.10;;
2011;SDS011;1009;51.436;6.972;2023-04-06T01:42:56;15.90;;;13.07;;
2011;SDS011;1009;51.436;6.972;2023-04-06T01:45:22;15.30;;;12.00;;
2011;SDS011;1009;51.436;6.972;2023-04-06T01:47:49;17.53;;;13.10;;
2011;SDS011;1009;51.436;6.972;2023-04-06T01:50:16;16.10;;;12.63;;
2011;SDS011;1009;51.436;6.972;2023-04-06T01:52:43;16.50;;;12.80;;
2011;SDS011;1009;51.436;6.972;2023-04-06T01:55:09;14.03;;;12.40;;
2011;SDS011;1009;51.436;6.972;2023-04-06T01:57:37;17.50;;;13.20;;
2011;SDS011;1009;51.436;6.972;2023-04-06T02:00:04;19.03;;;12.37;;
2011;SDS011;1009;51.436;6.972;2023-04-06T02:02:32;13.17;;;11.60;;
2011;SDS011;1009;51.436;6.972;2023-04-06T02:04:59;15.90;;;13.53;;
2011;SDS011;1009;51.436;6.972;2023-04-06T02:07:25;16.30;;;12.63;;
2011;SDS011;1009;51.436;6.972;2023-04-06T02:09:53;15.20;;;12.40;;
2011;SDS011;1009;51.436;6.972;2023-04-06T02:12:20;14.67;;;12.80;;
2011;SDS011;1009;51.436;6.972;2023-04-06T02:14:50;17.63;;;13.10;;
2011;SDS011;1009;51.436;6.972;2023-04-06T02:17:16;15.17;;;12.37;;
2011;SDS011;1009;51.436;6.972;2023-04-06T02:19:43;15.17;;;13.57;;
2011;SDS011;1009;51.436;6.972;2023-04-06T02:22:10;14.70;;;13.10;;
2011;SDS011;1009;51.436;6.972;2023-04-06T02:24:37;18.47;;;12.90;;
2011;SDS011;1009;51.436;6.972;2023-04-06T02:27:03;15.43;;;12.47;;
2011;SDS011;1009;51.436;6.972;2023-04-06T02:29:31;15.20;;;12.53;;
2011;SDS011;1009;51.436;6.972;2023-04-06T02:31:58;16.20;;;12.87;;
2011;SDS011;1009;51.436;6.972;2023-04-06T02:34:25;18.20;;;12.30;;
2011;SDS011;1009;51.436;6.972;2023-04-06T02:36:52;14.47;;;12.30;;
2011;SDS011;1009;51.436;6.972;2023-04-06T02:39:18;18.87;;;12.50;;
2011;SDS011;1009;51.436;6.972;2023-04-06T02:41:45;13.80;;;12.03;;
2011;SDS011;1009;51.436;6.972;2023-04-06T02:44:12;14.73;;;12.90;;
2011;SDS011;1009;51.436;6.972;2023-04-06T02:46:39;14.30;;;12.07;;
2011;SDS011;1009;51.436;6.972;2023-04-06T02:49:07;16.67;;;11.30;;
2011;SDS011;1009;51.436;6.972;2023-04-06T02:51:34;13.23;;;11.73;;
2011;SDS011;1009;51.436;6.972;2023-04-06T02:54:00;15.20;;;12.20;;
2011;SDS011;1009;51.436;6.972;2023-04-06T02:56:27;13.93;;;11.27;;
2011;SDS011;1009;51.436;6.972;2023-04-06T02:58:54;15.17;;;11.23;;
2011;SDS011;1009;51.436;6.972;2023-04-06T03:01:20;15.47;;;11.40;;
2011;SDS011;1009;51.436;6.972;2023-04-06T03:03:47;14.53;;;11.30;;
2011;SDS011;1009;51.436;6.972;2023-04-06T03:06:15;14.33;;;11.03;;
2011;SDS011;1009;51.436;6.972;2023-04-06T03:08:42;14.03;;;11.90;;
2011;SDS011;1009;51.436;6.972;2023-04-06T03:11:08;12.47;;;11.17;;
2011;SDS011;1009;51.436;6.972;2023-04-06T03:13:35;13.83;;;11.60;;
2011;SDS011;1009;51.436;6.972;2023-04-06T03:16:03;13.00;;;11.60;;
2011;SDS011;1009;51.436;6.972;2023-04-06T03:18:31;13.40;;;11.43;;
2011;SDS011;1009;51.436;6.972;2023-04-06T03:20:58;13.70;;;11.43;;
2011;SDS011;1009;51.436;6.972;2023-04-06T03:23:26;14.33;;;11.60;;
2011;SDS011;1009;51.436;6.972;2023-04-06T03:25:53;15.07;;;12.20;;
2011;SDS011;1009;51.436;6.972;2023-04-06T03:28:19;13.50;;;11.50;;
2011;SDS011;1009;51.436;6.972;2023-04-06T03:30:46;13.70;;;12.30;;
2011;SDS011;1009;51.436;6.972;2023-04-06T03:33:13;14.63;;;11.27;;
2011;SDS011;1009;51.436;6.972;2023-04-06T03:35:40;13.23;;;11.43;;
2011;SDS011;1009;51.436;6.972;2023-04-06T03:38:06;13.30;;;11.07;;
2011;SDS011;1009;51.436;6.972;2023-04-06T03:40:34;15.37;;;11.03;;
2011;SDS011;1009;51.436;6.972;2023-04-06T03:43:01;12.80;;;10.70;;
2011;SDS011;1009;51.436;6.972;2023-04-06T03:45:28;13.97;;;11.80;;
2011;SDS011;1009;51.436;6.972;2023-04-06T03:47:54;12.73;;;11.30;;
2011;SDS011;1009;51.436;6.972;2023-04-06T03:50:21;13.40;;;10.90;;
2011;SDS011;1009;51.436;6.972;2023-04-06T03:52:48;12.50;;;11.17;;
2011;SDS011;1009;51.436;6.972;2023-04-06T03:55:15;16.53;;;12.30;;
2011;SDS011;1009;51.436;6.972;2023-04-06T03:57:44;14.60;;;11.20;;
2011;SDS011;1009;51.436;6.972;2023-04-06T04:00:11;12.90;;;11.63;;
2011;SDS011;1009;51.436;6.972;2023-04-06T04:02:39;14.73;;;11.60;;
2011;SDS011;1009;51.436;6.972;2023-04-06T04:05:06;15.47;;;12.60;;
2011;SDS011;1009;51.436;6.972;2023-04-06T04:07:33;12.77;;;11.30;;
2011;SDS011;1009;51.436;6.972;2023-04-06T04:10:00;13.97;;;11.87;;
2011;SDS011;1009;51.436;6.972;2023-04-06T04:12:27;12.87;;;11.57;;
2011;SDS011;1009;51.436;6.972;2023-04-06T04:14:55;15.93;;;11.90;;
2011;SDS011;1009;51.436;6.972;2023-04-06T04:17:21;13.50;;;11.40;;
2011;SDS011;1009;51.436;6.972;2023-04-06T04:19:48;11.50;;;10.10;;
2011;SDS011;1009;51.436;6.972;2023-04-06T04:22:15;13.90;;;11.40;;
2011;SDS011;1009;51.436;6.972;2023-04-06T04:24:41;13.33;;;11.23;;
2011;SDS011;1009;51.436;6.972;2023-04-06T04:27:08;12.30;;;11.00;;
2011;SDS011;1009;51.436;6.972;2023-04-06T04:29:35;11.50;;;10.20;;
2011;SDS011;1009;51.436;6.972;2023-04-06T04:32:03;13.97;;;11.17;;
2011;SDS011;1009;51.436;6.972;2023-04-06T04:34:30;14.10;;;11.33;;
2011;SDS011;1009;51.436;6.972;2023-04-06T04:36:57;10.87;;;9.63;;
2011;SDS011;1009;51.436;6.972;2023-04-06T04:39:24;11.13;;;9.70;;
2011;SDS011;1009;51.436;6.972;2023-04-06T04:41:51;12.60;;;10.90;;
2011;SDS011;1009;51.436;6.972;2023-04-06T04:44:18;13.20;;;10.27;;
2011;SDS011;1009;51.436;6.972;2023-04-06T04:46:45;11.37;;;10.23;;
2011;SDS011;1009;51.436;6.972;2023-04-06T04:49:13;11.80;;;10.23;;
2011;SDS011;1009;51.436;6.972;2023-04-06T04:51:40;12.90;;;9.47;;
2011;SDS011;1009;51.436;6.972;2023-04-06T04:54:06;10.50;;;9.20;;
2011;SDS011;1009;51.436;6.972;2023-04-06T04:56:33;12.17;;;10.27;;
2011;SDS011;1009;51.436;6.972;2023-04-06T04:59:00;16.70;;;9.37;;
2011;SDS011;1009;51.436;6.972;2023-04-06T05:01:26;10.67;;;9.57;;
2011;SDS011;1009;51.436;6.972;2023-04-06T05:03:53;13.10;;;10.10;;
2011;SDS011;1009;51.436;6.972;2023-04-06T05:06:22;11.53;;;9.37;;
2011;SDS011;1009;51.436;6.972;2023-04-06T05:08:48;10.47;;;9.43;;
2011;SDS011;1009;51.436;6.972;2023-04-06T05:11:15;11.43;;;9.87;;
2011;SDS011;1009;51.436;6.972;2023-04-06T05:13:42;10.60;;;9.30;;
2011;SDS011;1009;51.436;6.972;2023-04-06T05:16:08;11.10;;;9.50;;
2011;SDS011;1009;51.436;6.972;2023-04-06T05:18:35;11.20;;;9.30;;
2011;SDS011;1009;51.436;6.972;2023-04-06T05:21:02;10.43;;;9.23;;
2011;SDS011;1009;51.436;6.972;2023-04-06T05:23:30;10.60;;;9.50;;
2011;SDS011;1009;51.436;6.972;2023-04-06T05:25:57;10.70;;;9.00;;
2011;SDS011;1009;51.436;6.972;2023-04-06T05:28:24;10.20;;;9.07;;
2011;SDS011;1009;51.436;6.972;2023-04-06T05:30:50;12.00;;;10.10;;
2011;SDS011;1009;51.436;6.972;2023-04-06T05:33:17;12.63;;;8.90;;
2011;SDS011;1009;51.436;6.972;2023-04-06T05:35:44;10.27;;;8.77;;
2011;SDS011;1009;51.436;6.972;2023-04-06T05:38:11;10.80;;;8.90;;
2011;SDS011;1009;51.436;6.972;2023-04-06T05:40:39;12.30;;;9.67;;
2011;SDS011;1009;51.436;6.972;2023-04-06T05:43:06;13.70;;;9.20;;
2011;SDS011;1009;51.436;6.972;2023-04-06T05:45:33;11.00;;;9.00;;
2011;SDS011;1009;51.436;6.972;2023-04-06T05:48:00;11.73;;;9.40;;
2011;SDS011;1009;51.436;6.972;2023-04-06T05:50:27;14.67;;;9.40;;
2011;SDS011;1009;51.436;6.972;2023-04-06T05:52:53;10.57;;;9.10;;
2011;SDS011;1009;51.436;6.972;2023-04-06T05:55:20;11.60;;;9.80;;
2011;SDS011;1009;51.436;6.972;2023-04-06T05:57:48;12.80;;;9.03;;
2011;SDS011;1009;51.436;6.972;2023-04-06T06:00:15;12.50;;;9.43;;
2011;SDS011;1009;51.436;6.972;2023-04-06T06:02:42;15.53;;;9.30;;
2011;SDS011;1009;51.436;6.972;2023-04-06T06:05:09;9.60;;;8.63;;
2011;SDS011;1009;51.436;6.972;2023-04-06T06:07:35;9.90;;;8.70;;
2011;SDS011;1009;51.436;6.972;2023-04-06T06:10:02;10.03;;;8.40;;
2011;SDS011;1009;51.436;6.972;2023-04-06T06:12:29;12.13;;;8.87;;
2011;SDS011;1009;51.436;6.972;2023-04-06T06:14:57;9.90;;;8.90;;
2011;SDS011;1009;51.436;6.972;2023-04-06T06:17:25;11.10;;;9.13;;
2011;SDS011;1009;51.436;6.972;2023-04-06T06:19:52;9.73;;;8.67;;
2011;SDS011;1009;51.436;6.972;2023-04-06T06:22:18;9.83;;;8.33;;
2011;SDS011;1009;51.436;6.972;2023-04-06T06:24:45;10.67;;;9.33;;
2011;SDS011;1009;51.436;6.972;2023-04-06T06:27:12;10.23;;;9.13;;
2011;SDS011;1009;51.436;6.972;2023-04-06T06:29:39;10.37;;;8.77;;
2011;SDS011;1009;51.436;6.972;2023-04-06T06:32:07;11.40;;;8.60;;
2011;SDS011;1009;51.436;6.972;2023-04-06T06:34:34;11.00;;;8.17;;
2011;SDS011;1009;51.436;6.972;2023-04-06T06:37:01;10.60;;;9.30;;
2011;SDS011;1009;51.436;6.972;2023-04-06T06:39:28;9.80;;;8.40;;
2011;SDS011;1009;51.436;6.972;2023-04-06T06:41:54;13.27;;;9.43;;
2011;SDS011;1009;51.436;6.972;2023-04-06T06:44:21;10.07;;;9.10;;
2011;SDS011;1009;51.436;6.972;2023-04-06T06:46:48;11.40;;;8.47;;
2011;SDS011;1009;51.436;6.972;2023-04-06T06:49:16;11.20;;;8.67;;
2011;SDS011;1009;51.436;6.972;2023-04-06T06:51:43;9.37;;;8.20;;
2011;SDS011;1009;51.436;6.972;2023-04-06T06:54:10;13.80;;;8.90;;
2011;SDS011;1009;51.436;6.972;2023-04-06T06:56:37;12.27;;;8.63;;
2011;SDS011;1009;51.436;6.972;2023-04-06T06:59:04;10.23;;;8.20;;
2011;SDS011;1009;51.436;6.972;2023-04-06T07:01:31;11.80;;;8.53;;
2011;SDS011;1009;51.436;6.972;2023-04-06T07:03:58;11.73;;;8.80;;
2011;SDS011;1009;51.436;6.972;2023-04-06T07:06:26;11.80;;;9.13;;
2011;SDS011;1009;51.436;6.972;2023-04-06T07:08:53;9.30;;;8.27;;
2011;SDS011;1009;51.436;6.972;2023-04-06T07:11:20;13.97;;;8.87;;
2011;SDS011;1009;51.436;6.972;2023-04-06T07:13:47;12.50;;;8.67;;
2011;SDS011;1009;51.436;6.972;2023-04-06T07:16:16;11.13;;;8.50;;
2011;SDS011;1009;51.436;6.972;2023-04-06T07:18:43;9.93;;;8.17;;
2011;SDS011;1009;51.436;6.972;2023-04-06T07:21:10;11.70;;;8.70;;
2011;SDS011;1009;51.436;6.972;2023-04-06T07:23:38;10.67;;;8.87;;
2011;SDS011;1009;51.436;6.972;2023-04-06T07:26:05;11.00;;;8.53;;
2011;SDS011;1009;51.436;6.972;2023-04-06T07:28:32;11.20;;;8.53;;
2011;SDS011;1009;51.436;6.972;2023-04-06T07:30:58;11.23;;;8.93;;
2011;SDS011;1009;51.436;6.972;2023-04-06T07:33:25;11.37;;;8.87;;
2011;SDS011;1009;51.436;6.972;2023-04-06T07:35:54;11.90;;;8.50;;
2011;SDS011;1009;51.436;6.972;2023-04-06T07:38:21;11.50;;;8.73;;
2011;SDS011;1009;51.436;6.972;2023-04-06T07:40:49;12.70;;;9.90;;
2011;SDS011;1009;51.436;6.972;2023-04-06T07:43:16;12.23;;;9.30;;
2011;SDS011;1009;51.436;6.972;2023-04-06T07:45:43;14.57;;;9.83;;
2011;SDS011;1009;51.436;6.972;2023-04-06T07:48:10;16.93;;;11.10;;
2011;SDS011;1009;51.436;6.972;2023-04-06T07:50:36;11.80;;;9.30;;
2011;SDS011;1009;51.436;6.972;2023-04-06T07:53:03;13.50;;;9.23;;
2011;SDS011;1009;51.436;6.972;2023-04-06T07:55:31;11.83;;;8.70;;
2011;SDS011;1009;51.436;6.972;2023-04-06T07:57:59;12.07;;;9.67;;
2011;SDS011;1009;51.436;6.972;2023-04-06T08:00:25;16.77;;;9.93;;
2011;SDS011;1009;51.436;6.972;2023-04-06T08:02:52;14.20;;;10.17;;
2011;SDS011;1009;51.436;6.972;2023-04-06T08:05:19;14.03;;;9.73;;
2011;SDS011;1009;51.436;6.972;2023-04-06T08:07:45;13.40;;;9.60;;
2011;SDS011;1009;51.436;6.972;2023-04-06T08:10:12;13.17;;;10.77;;
2011;SDS011;1009;51.436;6.972;2023-04-06T08:12:39;15.83;;;11.10;;
2011;SDS011;1009;51.436;6.972;2023-04-06T08:15:07;11.90;;;10.20;;
2011;SDS011;1009;51.436;6.972;2023-04-06T08:17:34;19.80;;;9.80;;
2011;SDS011;1009;51.436;6.972;2023-04-06T08:20:01;16.10;;;10.97;;
2011;SDS011;1009;51.436;6.972;2023-04-06T08:22:29;16.37;;;10.80;;
2011;SDS011;1009;51.436;6.972;2023-04-06T08:24:55;15.50;;;10.47;;
2011;SDS011;1009;51.436;6.972;2023-04-06T08:27:22;13.53;;;10.40;;
2011;SDS011;1009;51.436;6.972;2023-04-06T08:29:49;14.43;;;9.80;;
2011;SDS011;1009;51.436;6.972;2023-04-06T08:32:18;16.30;;;10.10;;
2011;SDS011;1009;51.436;6.972;2023-04-06T08:34:44;15.73;;;10.87;;
2011;SDS011;1009;51.436;6.972;2023-04-06T08:37:11;14.50;;;9.57;;
2011;SDS011;1009;51.436;6.972;2023-04-06T08:39:38;14.70;;;10.60;;
2011;SDS011;1009;51.436;6.972;2023-04-06T08:42:10;12.70;;;9.23;;
2011;SDS011;1009;51.436;6.972;2023-04-06T08:44:39;13.50;;;10.00;;
2011;SDS011;1009;51.436;6.972;2023-04-06T08:47:07;14.87;;;10.50;;
2011;SDS011;1009;51.436;6.972;2023-04-06T08:49:35;13.97;;;10.10;;
2011;SDS011;1009;51.436;6.972;2023-04-06T08:52:05;13.20;;;10.63;;
2011;SDS011;1009;51.436;6.972;2023-04-06T08:54:32;17.20;;;10.90;;
2011;SDS011;1009;51.436;6.972;2023-04-06T08:56:59;14.40;;;10.70;;
2011;SDS011;1009;51.436;6.972;2023-04-06T08:59:26;14.93;;;10.90;;
2011;SDS011;1009;51.436;6.972;2023-04-06T09:01:53;17.27;;;10.80;;
2011;SDS011;1009;51.436;6.972;2023-04-06T09:04:21;16.57;;;10.30;;
2011;SDS011;1009;51.436;6.972;2023-04-06T09:06:49;13.73;;;9.87;;
2011;SDS011;1009;51.436;6.972;2023-04-06T09:09:16;14.67;;;10.13;;
2011;SDS011;1009;51.436;6.972;2023-04-06T09:11:43;13.33;;;11.70;;
2011;SDS011;1009;51.436;6.972;2023-04-06T09:14:11;15.37;;;10.10;;
2011;SDS011;1009;51.436;6.972;2023-04-06T09:16:41;19.50;;;12.27;;
2011;SDS011;1009;51.436;6.972;2023-04-06T09:19:08;18.17;;;12.00;;
2011;SDS011;1009;51.436;6.972;2023-04-06T09:21:35;15.60;;;11.93;;
2011;SDS011;1009;51.436;6.972;2023-04-06T09:24:04;21.23;;;11.23;;
2011;SDS011;1009;51.436;6.972;2023-04-06T09:26:32;17.43;;;12.20;;
2011;SDS011;1009;51.436;6.972;2023-04-06T09:29:09;15.00;;;11.23;;
2011;SDS011;1009;51.436;6.972;2023-04-06T09:31:36;18.50;;;11.13;;
2011;SDS011;1009;51.436;6.972;2023-04-06T09:34:03;20.33;;;13.03;;
2011;SDS011;1009;51.436;6.972;2023-04-06T09:36:30;18.30;;;12.93;;
2011;SDS011;1009;51.436;6.972;2023-04-06T09:38:58;17.33;;;11.60;;
2011;SDS011;1009;51.436;6.972;2023-04-06T09:41:28;14.53;;;11.63;;
2011;SDS011;1009;51.436;6.972;2023-04-06T09:44:02;16.13;;;11.93;;
2011;SDS011;1009;51.436;6.972;2023-04-06T09:46:30;18.37;;;12.13;;
2011;SDS011;1009;51.436;6.972;2023-04-06T09:48:58;19.30;;;13.57;;
2011;SDS011;1009;51.436;6.972;2023-04-06T09:51:26;16.93;;;12.20;;
2011;SDS011;1009;51.436;6.972;2023-04-06T09:53:56;17.50;;;12.50;;
2011;SDS011;1009;51.436;6.972;2023-04-06T09:56:27;14.70;;;12.27;;
2011;SDS011;1009;51.436;6.972;2023-04-06T09:59:04;20.90;;;13.30;;
2011;SDS011;1009;51.436;6.972;2023-04-06T10:01:34;20.20;;;13.77;;
2011;SDS011;1009;51.436;6.972;2023-04-06T10:04:05;16.73;;;12.63;;
2011;SDS011;1009;51.436;6.972;2023-04-06T10:06:39;17.03;;;11.80;;
2011;SDS011;1009;51.436;6.972;2023-04-06T10:09:06;14.97;;;12.17;;
2011;SDS011;1009;51.436;6.972;2023-04-06T10:11:35;21.40;;;13.60;;
2011;SDS011;1009;51.436;6.972;2023-04-06T10:14:03;18.20;;;12.60;;
2011;SDS011;1009;51.436;6.972;2023-04-06T10:16:30;20.47;;;14.57;;
2011;SDS011;1009;51.436;6.972;2023-04-06T10:18:58;20.60;;;12.80;;
2011;SDS011;1009;51.436;6.972;2023-04-06T10:21:35;16.30;;;11.67;;
2011;SDS011;1009;51.436;6.972;2023-04-06T10:24:06;18.63;;;12.80;;
2011;SDS011;1009;51.436;6.972;2023-04-06T10:26:37;19.67;;;13.40;;
2011;SDS011;1009;51.436;6.972;2023-04-06T10:29:04;17.10;;;12.63;;
2011;SDS011;1009;51.436;6.972;2023-04-06T10:31:31;15.87;;;12.13;;
2011;SDS011;1009;51.436;6.972;2023-04-06T10:33:58;17.00;;;12.77;;
2011;SDS011;1009;51.436;6.972;2023-04-06T10:36:26;21.07;;;13.20;;
2011;SDS011;1009;51.436;6.972;2023-04-06T10:38:55;20.73;;;13.33;;
2011;SDS011;1009;51.436;6.972;2023-04-06T10:41:23;16.83;;;12.20;;
2011;SDS011;1009;51.436;6.972;2023-04-06T10:43:56;17.70;;;12.40;;
2011;SDS011;1009;51.436;6.972;2023-04-06T10:46:26;16.77;;;12.77;;
2011;SDS011;1009;51.436;6.972;2023-04-06T10:48:54;19.13;;;13.40;;
2011;SDS011;1009;51.436;6.972;2023-04-06T10:51:23;18.83;;;12.00;;
2011;SDS011;1009;51.436;6.972;2023-04-06T10:53:53;18.20;;;12.90;;
2011;SDS011;1009;51.436;6.972;2023-04-06T10:56:22;19.50;;;13.67;;
2011;SDS011;1009;51.436;6.972;2023-04-06T10:58:53;17.57;;;12.70;;
2011;SDS011;1009;51.436;6.972;2023-04-06T11:01:22;16.40;;;12.40;;
2011;SDS011;1009;51.436;6.972;2023-04-06T11:03:52;17.57;;;13.53;;
2011;SDS011;1009;51.436;6.972;2023-04-06T11:06:21;20.40;;;14.53;;
2011;SDS011;1009;51.436;6.972;2023-04-06T11:08:48;19.13;;;13.50;;
2011;SDS011;1009;51.436;6.972;2023-04-06T11:11:16;19.20;;;12.90;;
2011;SDS011;1009;51.436;6.972;2023-04-06T11:13:45;18.00;;;11.87;;
2011;SDS011;1009;51.436;6.972;2023-04-06T11:16:18;21.40;;;12.80;;
2011;SDS011;1009;51.436;6.972;2023-04-06T11:18:49;18.00;;;12.73;;
2011;SDS011;1009;51.436;6.972;2023-04-06T11:21:17;18.97;;;12.90;;
2011;SDS011;1009;51.436;6.972;2023-04-06T11:23:44;21.50;;;12.73;;
2011;SDS011;1009;51.436;6.972;2023-04-06T11:26:11;20.43;;;13.03;;
2011;SDS011;1009;51.436;6.972;2023-04-06T11:28:37;18.10;;;12.07;;
2011;SDS011;1009;51.436;6.972;2023-04-06T11:31:05;18.37;;;12.57;;
2011;SDS011;1009;51.436;6.972;2023-04-06T11:33:36;19.80;;;12.70;;
2011;SDS011;1009;51.436;6.972;2023-04-06T11:36:03;18.10;;;12.40;;
2011;SDS011;1009;51.436;6.972;2023-04-06T11:38:31;15.67;;;11.70;;
2011;SDS011;1009;51.436;6.972;2023-04-06T11:40:58;21.00;;;12.80;;
2011;SDS011;1009;51.436;6.972;2023-04-06T11:43:27;25.93;;;14.17;;
2011;SDS011;1009;51.436;6.972;2023-04-06T11:45:59;18.57;;;12.50;;
2011;SDS011;1009;51.436;6.972;2023-04-06T11:48:27;23.67;;;13.80;;
2011;SDS011;1009;51.436;6.972;2023-04-06T11:50:59;18.77;;;12.47;;
2011;SDS011;1009;51.436;6.972;2023-04-06T11:53:26;18.73;;;12.70;;
2011;SDS011;1009;51.436;6.972;2023-04-06T11:55:54;21.60;;;12.33;;
2011;SDS011;1009;51.436;6.972;2023-04-06T11:58:21;18.30;;;12.20;;
2011;SDS011;1009;51.436;6.972;2023-04-06T12:00:47;19.37;;;14.10;;
2011;SDS011;1009;51.436;6.972;2023-04-06T12:03:14;23.63;;;13.80;;
2011;SDS011;1009;51.436;6.972;2023-04-06T12:05:41;21.17;;;14.00;;
2011;SDS011;1009;51.436;6.972;2023-04-06T12:08:09;22.30;;;14.57;;
2011;SDS011;1009;51.436;6.972;2023-04-06T12:10:36;18.93;;;13.23;;
2011;SDS011;1009;51.436;6.972;2023-04-06T12:13:03;21.93;;;14.67;;
2011;SDS011;1009;51.436;6.972;2023-04-06T12:15:30;23.00;;;14.67;;
2011;SDS011;1009;51.436;6.972;2023-04-06T12:17:57;22.87;;;15.37;;
2011;SDS011;1009;51.436;6.972;2023-04-06T12:20:23;25.63;;;15.10;;
2011;SDS011;1009;51.436;6.972;2023-04-06T12:22:50;22.13;;;14.70;;
2011;SDS011;1009;51.436;6.972;2023-04-06T12:25:18;22.67;;;16.20;;
2011;SDS011;1009;51.436;6.972;2023-04-06T12:27:45;22.23;;;14.60;;
2011;SDS011;1009;51.436;6.972;2023-04-06T12:30:12;20.70;;;14.63;;
2011;SDS011;1009;51.436;6.972;2023-04-06T12:32:39;20.27;;;14.97;;
2011;SDS011;1009;51.436;6.972;2023-04-06T12:35:06;21.20;;;14.00;;
2011;SDS011;1009;51.436;6.972;2023-04-06T12:37:34;19.00;;;14.93;;
2011;SDS011;1009;51.436;6.972;2023-04-06T12:40:01;21.53;;;14.70;;
2011;SDS011;1009;51.436;6.972;2023-04-06T12:42:30;19.57;;;14.23;;
2011;SDS011;1009;51.436;6.972;2023-04-06T12:44:57;21.93;;;15.33;;
2011;SDS011;1009;51.436;6.972;2023-04-06T12:47:24;20.40;;;14.40;;
2011;SDS011;1009;51.436;6.972;2023-04-06T12:49:51;22.20;;;15.50;;
2011;SDS011;1009;51.436;6.972;2023-04-06T12:52:19;21.07;;;15.50;;
2011;SDS011;1009;51.436;6.972;2023-04-06T12:54:46;19.60;;;15.70;;
2011;SDS011;1009;51.436;6.972;2023-04-06T12:57:13;19.90;;;14.23;;
2011;SDS011;1009;51.436;6.972;2023-04-06T12:59:43;21.40;;;14.10;;
2011;SDS011;1009;51.436;6.972;2023-04-06T13:02:11;22.03;;;14.37;;
2011;SDS011;1009;51.436;6.972;2023-04-06T13:04:37;20.47;;;13.37;;
2011;SDS011;1009;51.436;6.972;2023-04-06T13:07:04;17.23;;;13.50;;
2011;SDS011;1009;51.436;6.972;2023-04-06T13:09:31;22.83;;;13.53;;
2011;SDS011;1009;51.436;6.972;2023-04-06T13:11:58;19.50;;;12.80;;
2011;SDS011;1009;51.436;6.972;2023-04-06T13:14:25;20.93;;;12.90;;
2011;SDS011;1009;51.436;6.972;2023-04-06T13:16:54;18.50;;;13.50;;
2011;SDS011;1009;51.436;6.972;2023-04-06T13:19:20;16.90;;;13.13;;
2011;SDS011;1009;51.436;6.972;2023-04-06T13:21:47;18.67;;;12.37;;
2011;SDS011;1009;51.436;6.972;2023-04-06T13:24:14;17.30;;;13.37;;
2011;SDS011;1009;51.436;6.972;2023-04-06T13:26:41;18.17;;;12.90;;
2011;SDS011;1009;51.436;6.972;2023-04-06T13:29:08;16.40;;;12.33;;
2011;SDS011;1009;51.436;6.972;2023-04-06T13:31:34;16.23;;;11.60;;
2011;SDS011;1009;51.436;6.972;2023-04-06T13:34:03;16.03;;;10.63;;
2011;SDS011;1009;51.436;6.972;2023-04-06T13:36:29;15.50;;;10.80;;
2011;SDS011;1009;51.436;6.972;2023-04-06T13:38:56;18.63;;;11.83;;
2011;SDS011;1009;51.436;6.972;2023-04-06T13:41:24;15.73;;;11.80;;
2011;SDS011;1009;51.436;6.972;2023-04-06T13:43:52;18.03;;;11.43;;
2011;SDS011;1009;51.436;6.972;2023-04-06T13:46:18;19.00;;;11.80;;
2011;SDS011;1009;51.436;6.972;2023-04-06T13:48:45;18.40;;;12.23;;
2011;SDS011;1009;51.436;6.972;2023-04-06T13:51:14;16.37;;;11.30;;
2011;SDS011;1009;51.436;6.972;2023-04-06T13:53:41;14.80;;;10.93;;
2011;SDS011;1009;51.436;6.972;2023-04-06T13:56:08;19.63;;;11.97;;
2011;SDS011;1009;51.436;6.972;2023-04-06T13:58:34;14.10;;;10.50;;
2011;SDS011;1009;51.436;6.972;2023-04-06T14:01:02;18.70;;;11.50;;
2011;SDS011;1009;51.436;6.972;2023-04-06T14:03:29;14.47;;;9.83;;
2011;SDS011;1009;51.436;6.972;2023-04-06T14:05:56;16.70;;;10.20;;
2011;SDS011;1009;51.436;6.972;2023-04-06T14:08:24;14.40;;;10.20;;
2011;SDS011;1009;51.436;6.972;2023-04-06T14:10:51;16.57;;;10.93;;
2011;SDS011;1009;51.436;6.972;2023-04-06T14:13:19;16.77;;;11.40;;
2011;SDS011;1009;51.436;6.972;2023-04-06T14:15:45;13.60;;;10.30;;
2011;SDS011;1009;51.436;6.972;2023-04-06T14:18:12;12.77;;;10.23;;
2011;SDS011;1009;51.436;6.972;2023-04-06T14:20:39;17.93;;;9.90;;
2011;SDS011;1009;51.436;6.972;2023-04-06T14:23:06;15.73;;;10.87;;
2011;SDS011;1009;51.436;6.972;2023-04-06T14:25:34;11.07;;;9.70;;
2011;SDS011;1009;51.436;6.972;2023-04-06T14:28:01;15.63;;;10.10;;
2011;SDS011;1009;51.436;6.972;2023-04-06T14:30:29;13.90;;;9.37;;
2011;SDS011;1009;51.436;6.972;2023-04-06T14:32:56;12.93;;;10.23;;
2011;SDS011;1009;51.436;6.972;2023-04-06T14:35:23;11.17;;;9.33;;
2011;SDS011;1009;51.436;6.972;2023-04-06T14:37:52;11.93;;;9.30;;
2011;SDS011;1009;51.436;6.972;2023-04-06T14:40:19;12.43;;;9.60;;
2011;SDS011;1009;51.436;6.972;2023-04-06T14:42:47;14.07;;;9.40;;
2011;SDS011;1009;51.436;6.972;2023-04-06T14:45:15;10.67;;;8.83;;
2011;SDS011;1009;51.436;6.972;2023-04-06T14:47:44;14.03;;;9.50;;
2011;SDS011;1009;51.436;6.972;2023-04-06T14:50:11;13.60;;;9.90;;
2011;SDS011;1009;51.436;6.972;2023-04-06T14:52:37;12.20;;;9.83;;
2011;SDS011;1009;51.436;6.972;2023-04-06T14:55:05;14.20;;;9.33;;
2011;SDS011;1009;51.436;6.972;2023-04-06T14:57:32;12.30;;;9.60;;